Time;durP1;ratioP1;P1;durP2;ratioP2;P2;SDS_P1;SDS_P2;PMS_P1;PMS_P2;Temp;Humidity;BMP_temperature;BMP_pressure;BME280_temperature;BME280_humidity;BME280_pressure;Samples;Min_cycle;Max_cycle;Signal;HPM_P1;HPM_P2
2021/06/02 00:00:02;;;;;;;4.03;3.72;;;14.30;92.10;;;;;;4989072;28;20188;-62
2021/06/02 00:02:28;;;;;;;4.85;4.45;;;14.10;91.80;;;;;;4989398;28;20198;-62
2021/06/02 00:04:54;;;;;;;4.10;3.80;;;14.10;92.10;;;;;;4989172;28;20180;-62
2021/06/02 00:07:22;;;;;;;4.38;3.97;;;14.10;92.40;;;;;;4989417;28;20777;-62
2021/06/02 00:09:49;;;;;;;4.03;3.72;;;14.10;92.50;;;;;;4992897;28;20653;-62
2021/06/02 00:12:16;;;;;;;4.18;3.88;;;13.90;92.70;;;;;;4989233;28;20179;-62
2021/06/02 00:14:41;;;;;;;4.70;3.90;;;13.70;92.70;;;;;;4993344;28;20194;-61
2021/06/02 00:17:10;;;;;;;4.60;4.17;;;14.00;93.20;;;;;;4993055;28;20219;-62
2021/06/02 00:19:36;;;;;;;4.75;4.30;;;13.80;93.10;;;;;;4993657;28;20450;-62
2021/06/02 00:22:03;;;;;;;4.10;3.80;;;13.80;93.40;;;;;;4993115;28;20179;-62
2021/06/02 00:24:29;;;;;;;4.07;3.65;;;13.80;93.60;;;;;;4993076;28;20187;-65
2021/06/02 00:26:57;;;;;;;4.15;3.80;;;13.80;93.90;;;;;;4992854;28;20215;-61
2021/06/02 00:29:30;;;;;;;4.65;4.22;;;13.80;94.10;;;;;;4992936;28;20192;-61
2021/06/02 00:31:56;;;;;;;3.92;3.63;;;13.50;94.40;;;;;;4994388;28;20250;-62
2021/06/02 00:34:23;;;;;;;5.90;4.35;;;13.20;94.50;;;;;;4992800;28;20202;-62
2021/06/02 00:36:49;;;;;;;4.90;4.50;;;13.50;94.90;;;;;;4992258;28;20619;-64
2021/06/02 00:39:15;;;;;;;5.68;4.47;;;13.50;95.10;;;;;;4992434;28;20575;-64
2021/06/02 00:41:43;;;;;;;4.43;4.13;;;13.40;95.20;;;;;;4992250;28;20291;-63
2021/06/02 00:44:11;;;;;;;4.45;4.05;;;13.60;95.40;;;;;;4992753;28;20215;-62
2021/06/02 00:46:38;;;;;;;4.60;4.20;;;13.20;95.50;;;;;;4992297;28;20213;-62
2021/06/02 00:49:09;;;;;;;4.75;4.35;;;13.30;95.90;;;;;;4992763;28;20525;-62
2021/06/02 00:51:36;;;;;;;4.85;4.25;;;13.10;96.00;;;;;;4992392;28;20651;-63
2021/06/02 00:54:03;;;;;;;5.90;4.60;;;13.10;96.30;;;;;;4992293;28;20195;-62
2021/06/02 00:56:50;;;;;;;4.80;4.40;;;13.00;96.70;;;;;;4991916;28;20223;-62
2021/06/02 00:59:18;;;;;;;4.95;4.55;;;13.20;96.90;;;;;;4991623;28;20211;-62
2021/06/02 01:01:44;;;;;;;4.55;4.15;;;13.30;96.70;;;;;;4992187;28;20191;-62
2021/06/02 01:04:10;;;;;;;5.13;4.57;;;13.10;96.70;;;;;;4992465;28;20554;-62
2021/06/02 01:06:43;;;;;;;5.43;4.93;;;13.00;96.60;;;;;;4992357;28;20204;-62
2021/06/02 01:09:09;;;;;;;4.55;4.22;;;13.20;96.80;;;;;;4993212;28;20496;-62
2021/06/02 01:11:35;;;;;;;5.17;4.23;;;13.00;97.00;;;;;;4991732;28;20191;-62
2021/06/02 01:14:03;;;;;;;4.78;4.30;;;12.80;97.10;;;;;;4991514;28;20871;-62
2021/06/02 01:16:34;;;;;;;5.85;5.03;;;12.70;97.20;;;;;;4991651;28;20219;-62
2021/06/02 01:19:01;;;;;;;4.53;4.20;;;12.80;97.40;;;;;;4990452;28;20191;-62
2021/06/02 01:21:29;;;;;;;4.57;4.15;;;12.70;97.60;;;;;;4993327;28;20562;-62
2021/06/02 01:23:59;;;;;;;5.50;5.00;;;12.80;97.70;;;;;;4992184;28;20581;-62
2021/06/02 01:26:27;;;;;;;5.18;4.43;;;13.00;98.00;;;;;;4991402;28;20318;-62
2021/06/02 01:28:53;;;;;;;4.32;4.03;;;12.90;98.00;;;;;;4991765;28;20184;-63
2021/06/02 01:31:43;;;;;;;6.60;4.20;;;12.80;98.10;;;;;;4991207;28;20233;-62
2021/06/02 01:34:08;;;;;;;4.70;4.30;;;12.80;98.00;;;;;;4993261;28;20198;-62
2021/06/02 01:36:51;;;;;;;5.10;4.70;;;12.80;98.30;;;;;;4990598;28;20593;-62
2021/06/02 01:39:44;;;;;;;5.20;4.70;;;12.60;98.20;;;;;;4991159;28;20201;-62
2021/06/02 01:42:37;;;;;;;4.28;3.80;;;12.50;98.50;;;;;;5007484;28;20680;-62
2021/06/02 01:45:20;;;;;;;4.85;4.40;;;12.50;98.60;;;;;;4990898;28;20247;-64
2021/06/02 01:47:57;;;;;;;4.60;4.20;;;12.30;98.70;;;;;;4991434;28;20182;-62
2021/06/02 01:51:00;;;;;;;6.32;4.65;;;12.30;98.80;;;;;;4990959;28;20262;-63
2021/06/02 01:54:03;;;;;;;5.55;5.05;;;12.60;99.20;;;;;;5005954;28;20218;-63
2021/06/02 02:10:15;;;;;;;4.72;4.32;;;12.20;99.90;;;;;;4978211;28;20194;-65
2021/06/02 02:12:59;;;;;;;5.50;5.10;;;12.20;99.90;;;;;;4979552;28;20203;-62
2021/06/02 02:16:12;;;;;;;6.45;4.80;;;12.30;99.90;;;;;;4990582;28;20624;-62
2021/06/02 02:19:15;;;;;;;5.00;4.40;;;12.00;99.90;;;;;;4931204;29;20203;-63
2021/06/02 02:21:49;;;;;;;5.07;4.30;;;12.00;99.90;;;;;;4990951;28;20187;-62
2021/06/02 02:24:29;;;;;;;5.20;4.70;;;11.90;99.90;;;;;;4988209;28;20198;-63
2021/06/02 02:27:01;;;;;;;4.90;4.40;;;11.80;99.90;;;;;;4990584;28;20714;-62
2021/06/02 02:29:35;;;;;;;8.02;4.70;;;11.70;99.90;;;;;;4990224;28;20663;-63
2021/06/02 02:32:07;;;;;;;5.25;4.75;;;11.70;99.90;;;;;;4990235;28;20178;-63
2021/06/02 02:34:56;;;;;;;5.53;5.03;;;11.80;99.90;;;;;;4990219;28;20570;-62
2021/06/02 02:37:30;;;;;;;4.28;3.97;;;11.80;99.90;;;;;;4987342;28;20192;-62
2021/06/02 02:40:09;;;;;;;4.88;4.43;;;11.90;99.90;;;;;;4988528;28;20228;-63
2021/06/02 02:42:54;;;;;;;5.40;4.65;;;11.60;99.90;;;;;;4991655;28;20683;-61
2021/06/02 02:45:23;;;;;;;7.00;6.30;;;11.70;99.90;;;;;;4984256;28;20222;-61
2021/06/02 02:47:58;;;;;;;4.85;4.45;;;11.60;99.90;;;;;;4990022;28;20204;-61
2021/06/02 02:50:45;;;;;;;5.50;5.07;;;11.70;99.90;;;;;;4985703;28;20185;-61
2021/06/02 02:53:43;;;;;;;4.10;3.80;;;11.50;99.90;;;;;;4986892;28;20191;-61
2021/06/02 02:56:20;;;;;;;5.10;4.60;;;11.50;99.90;;;;;;4947214;28;20296;-61
2021/06/02 02:59:10;;;;;;;5.38;4.95;;;11.40;99.90;;;;;;4989827;28;20194;-60
2021/06/02 03:01:51;;;;;;;4.93;4.43;;;11.40;99.90;;;;;;4985266;28;20198;-61
2021/06/02 03:04:24;;;;;;;5.80;5.15;;;11.40;99.90;;;;;;4989727;28;20194;-61
2021/06/02 03:06:58;;;;;;;5.00;4.60;;;11.60;99.90;;;;;;4986869;28;20213;-61
2021/06/02 03:09:54;;;;;;;5.03;4.63;;;11.20;99.90;;;;;;4989136;28;20217;-61
2021/06/02 03:12:38;;;;;;;4.80;4.30;;;11.20;99.90;;;;;;4989042;28;20181;-61
2021/06/02 03:15:22;;;;;;;5.65;4.70;;;11.40;99.90;;;;;;4988888;28;20207;-63
2021/06/02 03:17:58;;;;;;;6.97;5.20;;;11.00;99.90;;;;;;4989413;28;20186;-61
2021/06/02 03:20:26;;;;;;;5.50;5.00;;;11.30;99.90;;;;;;4989371;28;20197;-61
2021/06/02 03:23:01;;;;;;;5.65;4.88;;;11.30;99.90;;;;;;4989480;28;20193;-61
2021/06/02 03:25:34;;;;;;;5.30;4.18;;;11.00;99.90;;;;;;5005633;28;20650;-61
2021/06/02 03:28:15;;;;;;;5.55;5.05;;;11.20;99.90;;;;;;4989554;28;20217;-61
2021/06/02 03:30:52;;;;;;;5.82;4.72;;;11.10;99.90;;;;;;4999427;28;20526;-61
2021/06/02 03:33:46;;;;;;;5.95;4.40;;;10.90;99.90;;;;;;5004445;28;20193;-61
2021/06/02 03:36:11;;;;;;;5.90;4.95;;;11.10;99.90;;;;;;4988814;28;20213;-61
2021/06/02 03:39:03;;;;;;;5.13;4.63;;;11.10;99.90;;;;;;4989116;28;20906;-61
2021/06/02 03:41:49;;;;;;;5.50;4.75;;;10.90;99.90;;;;;;4989037;28;20235;-61
2021/06/02 03:44:48;;;;;;;5.35;4.70;;;10.90;99.90;;;;;;4988667;28;20186;-61
2021/06/02 03:47:51;;;;;;;5.35;4.85;;;11.00;99.90;;;;;;4985079;28;20196;-61
2021/06/02 03:50:20;;;;;;;6.15;5.15;;;10.90;99.90;;;;;;4987700;28;20186;-61
2021/06/02 03:53:27;;;;;;;4.15;3.75;;;10.90;99.90;;;;;;4989584;28;20311;-61
2021/06/02 03:56:05;;;;;;;5.57;5.07;;;11.10;99.90;;;;;;4932231;28;20218;-57
2021/06/02 03:58:58;;;;;;;6.28;4.90;;;10.80;99.90;;;;;;4986373;28;20193;-56
2021/06/02 04:01:28;;;;;;;5.43;4.93;;;11.10;99.90;;;;;;4987174;28;20185;-56
2021/06/02 04:04:12;;;;;;;5.95;4.82;;;11.00;99.90;;;;;;4987150;28;20279;-58
2021/06/02 04:07:05;;;;;;;5.78;4.90;;;11.10;99.90;;;;;;4983193;28;20211;-58
2021/06/02 04:09:52;;;;;;;7.45;4.95;;;11.20;99.90;;;;;;4975028;28;20189;-57
2021/06/02 04:12:33;;;;;;;7.07;4.53;;;11.00;99.90;;;;;;4981799;28;20212;-58
2021/06/02 04:15:02;;;;;;;5.65;4.60;;;11.10;99.90;;;;;;4996479;28;20211;-57
2021/06/02 04:17:28;;;;;;;5.05;4.55;;;11.40;99.90;;;;;;4979162;28;20213;-58
2021/06/02 04:19:54;;;;;;;5.05;4.63;;;11.20;99.90;;;;;;4981465;28;21714;-59
2021/06/02 04:22:23;;;;;;;5.00;4.50;;;11.20;99.90;;;;;;4983613;28;20186;-58
2021/06/02 04:24:49;;;;;;;6.00;5.35;;;11.30;99.90;;;;;;4980509;28;20235;-59
2021/06/02 04:27:17;;;;;;;5.55;4.85;;;11.20;99.90;;;;;;4984794;28;20188;-57
2021/06/02 04:29:52;;;;;;;4.47;4.05;;;11.00;99.90;;;;;;4981957;28;20583;-56
2021/06/02 04:32:18;;;;;;;4.53;4.10;;;11.20;99.90;;;;;;4988816;28;20195;-56
2021/06/02 04:34:48;;;;;;;5.78;4.85;;;11.30;99.90;;;;;;4991010;28;20236;-56
2021/06/02 04:37:16;;;;;;;4.78;4.38;;;11.30;99.90;;;;;;4979625;28;20213;-56
2021/06/02 04:39:45;;;;;;;5.10;4.70;;;11.60;99.90;;;;;;4980867;28;20324;-58
2021/06/02 04:42:11;;;;;;;5.32;4.82;;;11.50;99.90;;;;;;4982735;28;20181;-58
2021/06/02 04:44:38;;;;;;;5.63;5.13;;;11.80;99.90;;;;;;4983561;28;20191;-57
2021/06/02 04:47:05;;;;;;;5.18;4.68;;;11.60;99.90;;;;;;4982815;28;20265;-57
2021/06/02 04:49:43;;;;;;;10.30;5.85;;;11.90;99.90;;;;;;4984527;28;20193;-59
2021/06/02 04:52:30;;;;;;;5.35;4.85;;;11.40;99.90;;;;;;4996943;28;20651;-57
2021/06/02 04:55:24;;;;;;;10.02;6.68;;;12.10;99.90;;;;;;4997935;28;20193;-59
2021/06/02 04:58:08;;;;;;;5.75;4.50;;;12.20;99.90;;;;;;4987049;28;20221;-57
2021/06/02 05:00:49;;;;;;;6.03;4.60;;;12.40;99.90;;;;;;4991437;28;20184;-58
2021/06/02 05:03:40;;;;;;;5.30;4.80;;;12.50;99.90;;;;;;4988821;28;20215;-58
2021/06/02 05:06:20;;;;;;;5.75;4.53;;;12.50;99.90;;;;;;4988257;28;20287;-58
2021/06/02 05:09:10;;;;;;;8.73;4.60;;;12.70;99.90;;;;;;4988844;28;20183;-57
2021/06/02 05:11:48;;;;;;;5.95;4.60;;;12.90;99.80;;;;;;4985185;28;20556;-57
2021/06/02 05:14:45;;;;;;;5.07;4.60;;;12.70;99.50;;;;;;4986867;28;20215;-57
2021/06/02 05:17:19;;;;;;;6.82;5.20;;;13.30;99.50;;;;;;4989369;28;20231;-57
2021/06/02 05:20:17;;;;;;;6.65;4.63;;;13.20;98.70;;;;;;4990284;28;20539;-58
2021/06/02 05:23:20;;;;;;;5.32;4.40;;;13.30;98.50;;;;;;4989818;28;20720;-57
2021/06/02 05:26:04;;;;;;;4.53;4.13;;;13.40;98.00;;;;;;4983223;28;20631;-57
2021/06/02 05:28:45;;;;;;;5.43;4.93;;;13.80;97.80;;;;;;4987406;28;20677;-57
2021/06/02 05:31:33;;;;;;;5.10;4.60;;;13.90;97.50;;;;;;4999577;28;20184;-57
2021/06/02 05:34:43;;;;;;;5.53;4.60;;;14.10;96.80;;;;;;4988911;28;20234;-58
2021/06/02 05:37:33;;;;;;;4.68;4.15;;;14.20;96.10;;;;;;4988115;28;20612;-57
2021/06/02 05:40:20;;;;;;;6.05;4.35;;;14.40;95.90;;;;;;4990703;28;20195;-57
2021/06/02 05:43:01;;;;;;;4.78;4.22;;;14.70;95.30;;;;;;4982861;28;20310;-56
2021/06/02 05:45:54;;;;;;;5.88;5.38;;;14.90;94.40;;;;;;4982567;28;20207;-56
2021/06/02 05:48:38;;;;;;;5.18;4.40;;;15.00;93.90;;;;;;5000488;28;20203;-55
2021/06/02 05:51:22;;;;;;;4.47;3.63;;;15.00;93.00;;;;;;4984897;28;20195;-55
2021/06/02 05:54:13;;;;;;;6.95;4.03;;;15.20;91.90;;;;;;4985627;28;20652;-55
2021/06/02 05:57:17;;;;;;;5.60;4.00;;;15.30;91.80;;;;;;4983297;28;20586;-55
2021/06/02 06:00:19;;;;;;;5.40;4.50;;;15.50;91.70;;;;;;4929073;29;20248;-54
2021/06/02 06:03:15;;;;;;;4.75;3.70;;;15.60;91.10;;;;;;4931241;29;20320;-56
2021/06/02 06:05:59;;;;;;;6.65;4.10;;;16.00;90.40;;;;;;4978217;28;20238;-57
2021/06/02 06:09:13;;;;;;;4.40;4.00;;;15.70;89.70;;;;;;5005130;28;20569;-57
2021/06/02 06:12:09;;;;;;;4.90;4.50;;;16.10;90.00;;;;;;4986174;28;20225;-56
2021/06/02 06:15:12;;;;;;;10.85;10.05;;;16.30;90.30;;;;;;5000848;28;20230;-56
2021/06/02 06:18:01;;;;;;;3.70;3.40;;;16.30;88.60;;;;;;4990222;28;20195;-57
2021/06/02 06:20:47;;;;;;;4.70;4.18;;;16.40;86.40;;;;;;4984017;28;21067;-56
2021/06/02 06:23:28;;;;;;;5.50;5.00;;;16.50;85.40;;;;;;4988895;28;20227;-56
2021/06/02 06:26:06;;;;;;;3.72;3.42;;;16.50;85.20;;;;;;4987608;28;20577;-56
2021/06/02 06:28:44;;;;;;;3.90;2.83;;;16.80;84.90;;;;;;4989024;28;20203;-57
2021/06/02 06:31:24;;;;;;;6.68;5.50;;;17.00;83.70;;;;;;4989359;28;20191;-57
2021/06/02 06:33:52;;;;;;;7.22;5.15;;;17.10;83.10;;;;;;4988007;28;20295;-56
2021/06/02 06:36:23;;;;;;;5.13;4.53;;;17.40;83.20;;;;;;4985446;28;20203;-56
2021/06/02 06:39:15;;;;;;;5.05;3.67;;;17.50;82.10;;;;;;4988968;28;20661;-57
2021/06/02 06:41:42;;;;;;;4.18;3.80;;;17.70;81.40;;;;;;5004722;28;20214;-58
2021/06/02 06:44:12;;;;;;;4.85;3.25;;;17.90;80.20;;;;;;4988433;28;20262;-58
2021/06/02 06:46:39;;;;;;;3.00;2.53;;;18.10;75.90;;;;;;4987418;28;20204;-59
2021/06/02 06:49:09;;;;;;;4.13;3.40;;;18.20;73.80;;;;;;5000321;28;20191;-55
2021/06/02 06:51:35;;;;;;;6.63;3.10;;;18.40;72.20;;;;;;4986673;28;20657;-57
2021/06/02 06:54:02;;;;;;;3.42;2.83;;;18.70;71.00;;;;;;4989149;28;20191;-59
2021/06/02 06:56:29;;;;;;;5.38;2.58;;;19.00;67.90;;;;;;4987489;28;20311;-58
2021/06/02 06:58:57;;;;;;;2.78;2.58;;;19.40;67.00;;;;;;4988348;28;20187;-58
2021/06/02 07:01:24;;;;;;;3.30;2.45;;;20.00;65.90;;;;;;4986932;28;20555;-60
2021/06/02 07:03:50;;;;;;;7.73;4.20;;;21.40;62.80;;;;;;4988427;28;20179;-57
2021/06/02 07:06:16;;;;;;;4.93;4.53;;;23.90;58.00;;;;;;4985085;28;20519;-59
2021/06/02 07:08:46;;;;;;;6.10;4.67;;;25.60;55.70;;;;;;4985952;28;20448;-59
2021/06/02 07:11:17;;;;;;;10.23;4.30;;;26.70;51.80;;;;;;4986473;28;20476;-60
2021/06/02 07:13:45;;;;;;;5.20;3.63;;;28.40;49.10;;;;;;4987292;28;20447;-58
2021/06/02 07:16:12;;;;;;;4.93;4.37;;;30.00;43.30;;;;;;4988353;28;20477;-61
2021/06/02 07:18:40;;;;;;;4.70;4.30;;;31.20;41.00;;;;;;4984952;28;20438;-61
2021/06/02 07:21:07;;;;;;;4.80;4.30;;;33.00;39.40;;;;;;4988914;28;21006;-58
2021/06/02 07:23:33;;;;;;;5.03;4.17;;;34.80;35.50;;;;;;4988196;28;20580;-61
2021/06/02 07:25:59;;;;;;;7.73;4.70;;;36.30;33.80;;;;;;4982327;28;20553;-60
2021/06/02 07:28:39;;;;;;;4.93;4.50;;;38.10;30.70;;;;;;4986478;28;20223;-60
2021/06/02 07:31:07;;;;;;;5.20;4.70;;;36.90;30.00;;;;;;4984921;28;20446;-60
2021/06/02 07:33:34;;;;;;;5.63;5.13;;;38.70;29.40;;;;;;4981392;28;20971;-59
2021/06/02 07:36:01;;;;;;;5.10;4.67;;;40.00;28.20;;;;;;4980813;28;20525;-59
2021/06/02 07:38:27;;;;;;;6.00;4.43;;;41.20;27.00;;;;;;4981066;28;20466;-61
2021/06/02 07:40:53;;;;;;;4.47;4.03;;;41.80;25.70;;;;;;4983893;28;20970;-59
2021/06/02 07:43:19;;;;;;;4.70;3.83;;;42.40;25.20;;;;;;4977992;28;21199;-60
2021/06/02 07:45:45;;;;;;;4.50;4.10;;;42.20;24.90;;;;;;4983323;28;20469;-60
2021/06/02 07:48:12;;;;;;;5.40;4.90;;;38.60;25.40;;;;;;4981168;28;20463;-59
2021/06/02 07:50:37;;;;;;;9.80;4.10;;;35.60;27.90;;;;;;4985221;28;20808;-61
2021/06/02 07:53:03;;;;;;;4.37;3.83;;;33.10;29.90;;;;;;4988144;28;20445;-59
2021/06/02 07:55:29;;;;;;;9.30;6.00;;;34.20;31.30;;;;;;4983585;28;20681;-58
2021/06/02 07:57:56;;;;;;;4.57;4.20;;;36.30;28.50;;;;;;4987902;28;20183;-59
2021/06/02 08:00:21;;;;;;;4.60;3.60;;;37.20;27.50;;;;;;4984332;28;20797;-58
2021/06/02 08:02:47;;;;;;;4.23;3.80;;;36.90;27.30;;;;;;4986112;28;20441;-58
2021/06/02 08:05:15;;;;;;;4.70;3.63;;;34.80;28.40;;;;;;4988039;28;20214;-58
2021/06/02 08:07:42;;;;;;;3.97;3.63;;;35.30;27.90;;;;;;4986585;28;20187;-60
2021/06/02 08:10:09;;;;;;;5.53;3.80;;;34.30;28.50;;;;;;4984143;28;20454;-57
2021/06/02 08:12:35;;;;;;;4.67;4.07;;;33.00;29.50;;;;;;4978492;28;20454;-58
2021/06/02 08:15:00;;;;;;;3.97;3.40;;;33.50;30.00;;;;;;4986296;28;20464;-57
2021/06/02 08:17:26;;;;;;;14.40;13.23;;;32.60;29.90;;;;;;4987726;28;20470;-58
2021/06/02 08:19:52;;;;;;;3.73;3.43;;;35.10;29.40;;;;;;4983700;28;20279;-60
2021/06/02 08:22:17;;;;;;;4.00;2.83;;;36.30;27.50;;;;;;4967104;28;20668;-57
2021/06/02 08:24:43;;;;;;;3.03;2.73;;;36.40;26.80;;;;;;4984347;28;20222;-58
2021/06/02 08:27:13;;;;;;;2.70;2.50;;;35.30;27.60;;;;;;4983996;28;20701;-59
2021/06/02 08:29:39;;;;;;;2.80;2.60;;;37.00;27.30;;;;;;4987908;28;20215;-57
2021/06/02 08:32:06;;;;;;;3.30;3.00;;;38.10;24.90;;;;;;4990076;28;20446;-59
2021/06/02 08:34:31;;;;;;;4.20;2.87;;;38.60;25.30;;;;;;4992083;28;20923;-59
2021/06/02 08:36:57;;;;;;;2.80;2.53;;;39.80;24.50;;;;;;4990302;28;20486;-60
2021/06/02 08:39:23;;;;;;;2.60;2.40;;;40.50;22.60;;;;;;4994350;28;20290;-60
2021/06/02 08:41:50;;;;;;;2.80;2.60;;;40.50;22.10;;;;;;4992237;28;20191;-59
2021/06/02 08:44:19;;;;;;;3.10;2.90;;;41.10;22.20;;;;;;4992941;28;20211;-58
2021/06/02 08:46:46;;;;;;;3.93;3.17;;;39.40;22.00;;;;;;4991016;28;20473;-59
2021/06/02 08:49:16;;;;;;;2.60;2.40;;;38.70;22.70;;;;;;4991204;28;20493;-58
2021/06/02 08:51:42;;;;;;;2.77;2.57;;;39.00;21.90;;;;;;4986260;28;20952;-59
2021/06/02 08:54:09;;;;;;;2.80;2.60;;;37.20;23.20;;;;;;4990626;28;20446;-58
2021/06/02 08:56:41;;;;;;;2.63;2.47;;;36.00;24.10;;;;;;4988388;28;20523;-57
2021/06/02 08:59:07;;;;;;;3.33;3.13;;;37.60;23.90;;;;;;4986766;28;20430;-59
2021/06/02 09:01:33;;;;;;;4.10;3.03;;;37.70;24.10;;;;;;4991887;28;20426;-59
2021/06/02 09:04:07;;;;;;;4.50;3.23;;;38.50;24.50;;;;;;4992313;28;20591;-58
2021/06/02 09:06:35;;;;;;;4.17;3.80;;;37.20;25.80;;;;;;4991773;28;20473;-58
2021/06/02 09:09:04;;;;;;;5.23;3.40;;;38.30;25.10;;;;;;4991925;28;20449;-58
2021/06/02 09:11:42;;;;;;;4.37;3.03;;;38.10;24.40;;;;;;4989875;28;20754;-59
2021/06/02 09:14:27;;;;;;;3.13;2.93;;;37.50;24.90;;;;;;4989391;28;20438;-58
2021/06/02 09:16:55;;;;;;;3.50;3.20;;;38.10;25.40;;;;;;4985123;28;20473;-58
2021/06/02 09:19:53;;;;;;;3.40;3.10;;;38.90;25.00;;;;;;4983841;28;20489;-59
2021/06/02 09:22:20;;;;;;;4.33;3.13;;;39.10;24.50;;;;;;4974016;28;20840;-60
2021/06/02 09:24:53;;;;;;;5.37;3.30;;;39.60;24.20;;;;;;4982825;28;20471;-61
2021/06/02 09:27:50;;;;;;;4.13;3.20;;;40.00;23.80;;;;;;5005142;28;20442;-59
2021/06/02 09:30:21;;;;;;;3.20;2.90;;;39.50;23.80;;;;;;4983996;28;20447;-59
2021/06/02 09:32:51;;;;;;;3.33;3.13;;;40.40;23.40;;;;;;4981458;28;20446;-58
2021/06/02 09:35:17;;;;;;;3.47;3.00;;;37.90;23.70;;;;;;4982858;28;21031;-60
2021/06/02 09:37:50;;;;;;;3.50;3.30;;;38.60;24.80;;;;;;4985797;28;20439;-60
2021/06/02 09:40:28;;;;;;;3.50;3.20;;;38.60;24.10;;;;;;4984109;28;20461;-58
2021/06/02 09:42:55;;;;;;;3.10;2.80;;;37.80;25.10;;;;;;4986205;28;20465;-59
2021/06/02 09:45:22;;;;;;;5.27;3.30;;;36.40;24.80;;;;;;4982545;28;20489;-60
2021/06/02 09:47:53;;;;;;;3.33;3.03;;;36.70;25.20;;;;;;4986005;28;20435;-60
2021/06/02 09:50:33;;;;;;;3.50;2.90;;;36.60;24.70;;;;;;4984236;28;20920;-58
2021/06/02 09:53:02;;;;;;;3.27;2.73;;;37.50;24.90;;;;;;4981701;28;20462;-60
2021/06/02 09:55:46;;;;;;;3.33;2.60;;;38.10;24.10;;;;;;4990861;28;20461;-60
2021/06/02 09:58:16;;;;;;;3.23;2.70;;;38.10;23.80;;;;;;4991162;28;20796;-60
2021/06/02 10:00:53;;;;;;;3.03;2.83;;;38.70;23.50;;;;;;4990746;28;20832;-60
2021/06/02 10:03:26;;;;;;;3.73;3.43;;;39.10;23.10;;;;;;4991197;28;20438;-60
2021/06/02 10:05:53;;;;;;;3.80;2.90;;;39.80;22.80;;;;;;4991069;28;20513;-60
2021/06/02 10:08:25;;;;;;;3.93;2.60;;;39.30;23.00;;;;;;4991630;28;20522;-62
2021/06/02 10:10:52;;;;;;;2.43;2.33;;;40.20;22.00;;;;;;4991248;28;20439;-60
2021/06/02 10:13:20;;;;;;;3.50;2.83;;;39.60;22.20;;;;;;4991094;28;20435;-60
2021/06/02 10:15:47;;;;;;;5.63;2.80;;;39.80;22.30;;;;;;4981394;28;20475;-61
2021/06/02 10:18:30;;;;;;;4.57;3.53;;;40.40;21.90;;;;;;4989628;28;20439;-60
2021/06/02 10:21:13;;;;;;;4.60;2.73;;;39.40;22.00;;;;;;4989459;28;20441;-59
2021/06/02 10:23:44;;;;;;;4.77;2.90;;;39.70;22.10;;;;;;4991886;28;20517;-59
2021/06/02 10:26:15;;;;;;;7.90;3.73;;;39.30;21.80;;;;;;4989577;28;20536;-59
2021/06/02 10:28:42;;;;;;;3.60;3.30;;;39.30;22.20;;;;;;4991312;28;20806;-60
2021/06/02 10:31:11;;;;;;;5.10;2.70;;;39.20;21.80;;;;;;4990050;28;20443;-60
2021/06/02 10:33:37;;;;;;;3.77;3.03;;;38.60;22.00;;;;;;4991054;28;20485;-60
2021/06/02 10:36:07;;;;;;;6.47;3.33;;;38.80;22.30;;;;;;4990492;28;20478;-60
2021/06/02 10:38:44;;;;;;;3.03;2.83;;;38.90;22.30;;;;;;4971910;28;21323;-60
2021/06/02 10:41:18;;;;;;;3.70;3.40;;;38.00;22.80;;;;;;4988907;28;20441;-60
2021/06/02 10:43:47;;;;;;;5.80;3.20;;;38.70;22.60;;;;;;4990476;28;20445;-60
2021/06/02 10:46:17;;;;;;;3.43;2.50;;;37.70;22.10;;;;;;4990347;28;20461;-61
2021/06/02 10:48:46;;;;;;;2.83;2.63;;;38.10;22.60;;;;;;4986487;28;20546;-60
2021/06/02 10:51:31;;;;;;;3.60;3.30;;;37.20;22.70;;;;;;5006106;28;20526;-59
2021/06/02 10:54:03;;;;;;;3.13;2.93;;;36.80;23.50;;;;;;4990614;28;20446;-59
2021/06/02 10:56:29;;;;;;;3.30;3.07;;;37.70;23.30;;;;;;4990134;28;20471;-59
2021/06/02 10:58:56;;;;;;;3.53;3.23;;;37.60;22.80;;;;;;4990271;28;21002;-59
2021/06/02 11:01:22;;;;;;;8.50;3.20;;;37.20;23.30;;;;;;4989586;28;20218;-60
2021/06/02 11:04:11;;;;;;;3.50;2.80;;;37.60;23.50;;;;;;4988582;28;20862;-59
2021/06/02 11:06:44;;;;;;;3.10;2.90;;;37.60;23.50;;;;;;4987354;28;20481;-60
2021/06/02 11:09:14;;;;;;;3.00;2.80;;;37.30;22.70;;;;;;4990043;28;20924;-59
2021/06/02 11:11:41;;;;;;;4.00;3.70;;;36.80;23.10;;;;;;4989721;28;20439;-60
2021/06/02 11:14:13;;;;;;;3.17;2.87;;;36.90;23.80;;;;;;4989973;28;20534;-60
2021/06/02 11:16:42;;;;;;;3.90;3.50;;;36.30;23.90;;;;;;4989421;28;20866;-60
2021/06/02 11:19:17;;;;;;;3.83;3.00;;;36.30;23.80;;;;;;4989822;28;20526;-60
2021/06/02 11:21:53;;;;;;;12.30;3.80;;;36.40;23.70;;;;;;4989410;28;20434;-58
2021/06/02 11:24:35;;;;;;;4.27;3.87;;;36.10;23.60;;;;;;4989089;28;20431;-59
2021/06/02 11:27:12;;;;;;;3.10;2.90;;;34.90;24.20;;;;;;4979822;28;20485;-59
2021/06/02 11:29:50;;;;;;;3.80;3.40;;;34.90;24.40;;;;;;4989678;28;20431;-59
2021/06/02 11:32:17;;;;;;;3.20;2.90;;;34.20;25.00;;;;;;4998197;28;20430;-59
2021/06/02 11:34:44;;;;;;;3.97;3.67;;;33.80;25.60;;;;;;5005580;28;20441;-59
2021/06/02 11:37:13;;;;;;;3.93;2.77;;;33.40;25.00;;;;;;4987008;28;20510;-59
2021/06/02 11:39:41;;;;;;;4.47;4.07;;;33.10;25.80;;;;;;4982868;28;20451;-59
2021/06/02 11:42:09;;;;;;;4.07;3.60;;;32.40;26.00;;;;;;4982933;28;20847;-59
2021/06/02 11:44:37;;;;;;;3.47;3.17;;;31.80;26.90;;;;;;4980239;28;20447;-59
2021/06/02 11:47:04;;;;;;;3.50;3.20;;;31.80;27.30;;;;;;4988886;28;20465;-60
2021/06/02 11:49:31;;;;;;;3.40;3.10;;;31.70;27.50;;;;;;4986836;28;20465;-59
2021/06/02 11:52:16;;;;;;;4.47;2.87;;;31.60;27.70;;;;;;4980798;28;20457;-59
2021/06/02 11:54:46;;;;;;;3.87;2.97;;;30.70;28.00;;;;;;4979324;28;20472;-60
2021/06/02 11:57:32;;;;;;;3.60;3.30;;;30.70;28.50;;;;;;4977250;28;20474;-60
2021/06/02 12:00:00;;;;;;;5.67;2.87;;;29.90;28.50;;;;;;4971048;28;20442;-60
2021/06/02 12:02:26;;;;;;;3.00;2.80;;;29.60;29.10;;;;;;4985017;28;20449;-60
2021/06/02 12:04:52;;;;;;;3.27;2.97;;;29.50;29.10;;;;;;4994725;28;20447;-60
2021/06/02 12:07:26;;;;;;;3.50;3.20;;;29.60;29.20;;;;;;4994529;28;20228;-59
2021/06/02 12:09:55;;;;;;;3.10;2.90;;;29.30;29.30;;;;;;4995490;28;20199;-60
2021/06/02 12:12:22;;;;;;;4.70;3.67;;;29.00;29.90;;;;;;4996506;28;20449;-59
2021/06/02 12:14:57;;;;;;;2.93;2.73;;;29.00;30.50;;;;;;4992345;28;20555;-59
2021/06/02 12:17:31;;;;;;;3.80;3.13;;;28.70;30.20;;;;;;4995193;28;20473;-59
2021/06/02 12:19:58;;;;;;;3.30;2.63;;;28.70;30.00;;;;;;4986832;28;20886;-60
2021/06/02 12:22:25;;;;;;;3.63;3.33;;;28.60;30.80;;;;;;4989463;28;20812;-61
2021/06/02 12:25:13;;;;;;;4.10;3.13;;;28.50;30.70;;;;;;4982795;28;20551;-57
2021/06/02 12:27:50;;;;;;;3.30;3.00;;;28.40;30.60;;;;;;4988421;28;21030;-60
2021/06/02 12:30:20;;;;;;;3.57;2.90;;;28.40;31.50;;;;;;4991449;28;20507;-57
2021/06/02 12:32:49;;;;;;;4.00;2.70;;;28.30;31.50;;;;;;4994150;28;21237;-59
2021/06/02 12:35:28;;;;;;;4.30;3.30;;;28.20;32.10;;;;;;4994176;28;20497;-58
2021/06/02 12:38:16;;;;;;;4.00;2.93;;;28.20;31.90;;;;;;4996024;28;20519;-59
2021/06/02 12:40:53;;;;;;;3.00;2.80;;;28.10;32.00;;;;;;4990656;28;20496;-58
2021/06/02 12:43:21;;;;;;;3.23;3.00;;;28.30;32.30;;;;;;4990438;28;20500;-58
2021/06/02 12:45:48;;;;;;;3.20;2.87;;;28.20;32.20;;;;;;5007658;28;20805;-58
2021/06/02 12:48:32;;;;;;;2.87;2.60;;;28.20;31.90;;;;;;4991534;28;20541;-60
2021/06/02 12:50:57;;;;;;;3.00;2.80;;;27.90;32.20;;;;;;4989909;28;21273;-59
2021/06/02 12:53:32;;;;;;;3.07;2.87;;;28.00;31.80;;;;;;4992003;28;20435;-59
2021/06/02 12:55:58;;;;;;;2.87;2.67;;;27.70;32.00;;;;;;4993234;28;20211;-59
2021/06/02 12:58:24;;;;;;;3.30;2.90;;;27.60;32.10;;;;;;4993815;28;20442;-58
2021/06/02 13:00:50;;;;;;;3.30;2.80;;;27.40;32.30;;;;;;4993009;28;20439;-59
2021/06/02 13:03:21;;;;;;;3.10;2.67;;;27.40;32.60;;;;;;4993897;28;20175;-57
2021/06/02 13:05:49;;;;;;;3.60;3.30;;;27.40;32.50;;;;;;4986728;28;20465;-59
2021/06/02 13:08:15;;;;;;;3.40;3.10;;;27.30;32.80;;;;;;4991255;28;20866;-58
2021/06/02 13:10:44;;;;;;;3.33;2.87;;;27.60;33.20;;;;;;4993152;28;20496;-57
2021/06/02 13:13:11;;;;;;;3.60;3.30;;;27.80;32.40;;;;;;4991145;28;21099;-59
2021/06/02 13:15:38;;;;;;;5.90;2.97;;;27.80;32.10;;;;;;4990987;28;20556;-58
2021/06/02 13:18:06;;;;;;;3.10;2.90;;;27.90;32.80;;;;;;4989377;28;20450;-58
2021/06/02 13:20:34;;;;;;;3.10;2.80;;;27.90;31.80;;;;;;4990285;28;20434;-58
2021/06/02 13:23:09;;;;;;;2.33;2.13;;;27.90;31.80;;;;;;4989764;28;20806;-58
2021/06/02 13:25:35;;;;;;;2.70;2.50;;;27.90;32.00;;;;;;5004877;28;21041;-58
2021/06/02 13:28:03;;;;;;;3.83;2.60;;;27.80;32.30;;;;;;4990348;28;20443;-59
2021/06/02 13:30:39;;;;;;;3.47;3.17;;;27.80;32.70;;;;;;4988218;28;20184;-60
2021/06/02 13:33:05;;;;;;;2.47;2.27;;;27.90;33.60;;;;;;4989412;28;20465;-60
2021/06/02 13:35:31;;;;;;;2.70;2.50;;;27.90;32.90;;;;;;4989681;28;20557;-59